sensor_id;sensor_type;location;lat;lon;timestamp;P1;durP1;ratioP1;P2;durP2;ratioP2
8652;SDS011;4364;52.426;9.424;2024-01-15T00:01:59;22.30;;;12.57;;
8652;SDS011;4364;52.426;9.424;2024-01-15T00:04:26;18.13;;;10.80;;
8652;SDS011;4364;52.426;9.424;2024-01-15T00:06:52;19.23;;;10.90;;
8652;SDS011;4364;52.426;9.424;2024-01-15T00:09:19;18.97;;;9.80;;
8652;SDS011;4364;52.426;9.424;2024-01-15T00:11:47;19.13;;;9.93;;
8652;SDS011;4364;52.426;9.424;2024-01-15T00:14:13;19.33;;;9.20;;
8652;SDS011;4364;52.426;9.424;2024-01-15T00:16:41;17.90;;;9.53;;
8652;SDS011;4364;52.426;9.424;2024-01-15T00:19:07;15.83;;;9.03;;
8652;SDS011;4364;52.426;9.424;2024-01-15T00:21:34;19.17;;;8.67;;
8652;SDS011;4364;52.426;9.424;2024-01-15T00:24:01;15.13;;;8.70;;
8652;SDS011;4364;52.426;9.424;2024-01-15T00:26:27;19.17;;;9.43;;
8652;SDS011;4364;52.426;9.424;2024-01-15T00:28:53;14.70;;;8.63;;
8652;SDS011;4364;52.426;9.424;2024-01-15T00:31:20;12.53;;;7.30;;
8652;SDS011;4364;52.426;9.424;2024-01-15T00:33:47;16.27;;;9.13;;
8652;SDS011;4364;52.426;9.424;2024-01-15T00:36:13;16.70;;;9.37;;
8652;SDS011;4364;52.426;9.424;2024-01-15T00:38:41;14.67;;;8.27;;
8652;SDS011;4364;52.426;9.424;2024-01-15T00:41:08;16.67;;;7.87;;
8652;SDS011;4364;52.426;9.424;2024-01-15T00:43:34;15.13;;;8.80;;
8652;SDS011;4364;52.426;9.424;2024-01-15T00:46:02;15.90;;;7.63;;
8652;SDS011;4364;52.426;9.424;2024-01-15T00:48:29;13.20;;;7.63;;
8652;SDS011;4364;52.426;9.424;2024-01-15T00:50:56;13.20;;;7.70;;
8652;SDS011;4364;52.426;9.424;2024-01-15T00:53:22;12.37;;;6.77;;
8652;SDS011;4364;52.426;9.424;2024-01-15T00:55:49;15.43;;;8.60;;
8652;SDS011;4364;52.426;9.424;2024-01-15T00:58:15;17.97;;;8.93;;
8652;SDS011;4364;52.426;9.424;2024-01-15T01:00:42;14.33;;;7.47;;
8652;SDS011;4364;52.426;9.424;2024-01-15T01:03:09;16.90;;;7.63;;
8652;SDS011;4364;52.426;9.424;2024-01-15T01:05:36;14.33;;;6.90;;
8652;SDS011;4364;52.426;9.424;2024-01-15T01:08:04;18.50;;;6.80;;
8652;SDS011;4364;52.426;9.424;2024-01-15T01:10:30;11.97;;;6.73;;
8652;SDS011;4364;52.426;9.424;2024-01-15T01:12:57;14.20;;;5.80;;
8652;SDS011;4364;52.426;9.424;2024-01-15T01:15:23;14.33;;;5.60;;
8652;SDS011;4364;52.426;9.424;2024-01-15T01:17:50;10.73;;;4.87;;
8652;SDS011;4364;52.426;9.424;2024-01-15T01:20:17;10.87;;;4.87;;
8652;SDS011;4364;52.426;9.424;2024-01-15T01:22:44;11.13;;;3.80;;
8652;SDS011;4364;52.426;9.424;2024-01-15T01:25:11;11.63;;;4.00;;
8652;SDS011;4364;52.426;9.424;2024-01-15T01:27:38;9.63;;;4.37;;
8652;SDS011;4364;52.426;9.424;2024-01-15T01:30:05;11.13;;;4.03;;
8652;SDS011;4364;52.426;9.424;2024-01-15T01:32:32;8.60;;;4.47;;
8652;SDS011;4364;52.426;9.424;2024-01-15T01:34:59;12.43;;;4.53;;
8652;SDS011;4364;52.426;9.424;2024-01-15T01:37:25;13.30;;;3.93;;
8652;SDS011;4364;52.426;9.424;2024-01-15T01:39:52;12.47;;;4.33;;
8652;SDS011;4364;52.426;9.424;2024-01-15T01:42:18;9.83;;;3.90;;
8652;SDS011;4364;52.426;9.424;2024-01-15T01:44:45;12.27;;;4.13;;
8652;SDS011;4364;52.426;9.424;2024-01-15T01:47:12;13.77;;;3.93;;
8652;SDS011;4364;52.426;9.424;2024-01-15T01:49:39;14.77;;;4.20;;
8652;SDS011;4364;52.426;9.424;2024-01-15T01:52:07;10.83;;;4.00;;
8652;SDS011;4364;52.426;9.424;2024-01-15T01:54:36;10.23;;;4.47;;
8652;SDS011;4364;52.426;9.424;2024-01-15T01:57:04;9.77;;;3.97;;
8652;SDS011;4364;52.426;9.424;2024-01-15T01:59:32;9.80;;;3.80;;
8652;SDS011;4364;52.426;9.424;2024-01-15T02:02:00;11.97;;;3.47;;
8652;SDS011;4364;52.426;9.424;2024-01-15T02:04:30;13.73;;;3.90;;
8652;SDS011;4364;52.426;9.424;2024-01-15T02:06:58;9.10;;;3.33;;
8652;SDS011;4364;52.426;9.424;2024-01-15T02:09:25;16.23;;;3.70;;
8652;SDS011;4364;52.426;9.424;2024-01-15T02:11:52;9.00;;;3.23;;
8652;SDS011;4364;52.426;9.424;2024-01-15T02:14:18;9.73;;;2.97;;
8652;SDS011;4364;52.426;9.424;2024-01-15T02:16:45;8.70;;;2.73;;
8652;SDS011;4364;52.426;9.424;2024-01-15T02:19:15;15.07;;;2.90;;
8652;SDS011;4364;52.426;9.424;2024-01-15T02:21:43;8.00;;;2.77;;
8652;SDS011;4364;52.426;9.424;2024-01-15T02:24:11;12.10;;;2.53;;
8652;SDS011;4364;52.426;9.424;2024-01-15T02:26:38;11.50;;;2.63;;
8652;SDS011;4364;52.426;9.424;2024-01-15T02:29:06;10.33;;;2.77;;
8652;SDS011;4364;52.426;9.424;2024-01-15T02:31:37;11.40;;;2.40;;
8652;SDS011;4364;52.426;9.424;2024-01-15T02:34:04;11.73;;;2.97;;
8652;SDS011;4364;52.426;9.424;2024-01-15T02:36:31;5.90;;;1.80;;
8652;SDS011;4364;52.426;9.424;2024-01-15T02:38:57;8.53;;;2.47;;
8652;SDS011;4364;52.426;9.424;2024-01-15T02:41:24;11.00;;;3.20;;
8652;SDS011;4364;52.426;9.424;2024-01-15T02:43:50;6.97;;;2.60;;
8652;SDS011;4364;52.426;9.424;2024-01-15T02:46:17;8.67;;;2.57;;
8652;SDS011;4364;52.426;9.424;2024-01-15T02:48:43;12.37;;;2.30;;
8652;SDS011;4364;52.426;9.424;2024-01-15T02:51:10;8.60;;;2.20;;
8652;SDS011;4364;52.426;9.424;2024-01-15T02:53:38;11.30;;;2.63;;
8652;SDS011;4364;52.426;9.424;2024-01-15T02:56:06;9.97;;;1.97;;
8652;SDS011;4364;52.426;9.424;2024-01-15T02:58:33;10.63;;;2.37;;
8652;SDS011;4364;52.426;9.424;2024-01-15T03:01:00;8.70;;;2.23;;
8652;SDS011;4364;52.426;9.424;2024-01-15T03:03:27;11.43;;;2.10;;
8652;SDS011;4364;52.426;9.424;2024-01-15T03:05:54;9.73;;;2.23;;
8652;SDS011;4364;52.426;9.424;2024-01-15T03:08:20;8.67;;;2.27;;
8652;SDS011;4364;52.426;9.424;2024-01-15T03:10:48;7.30;;;1.90;;
8652;SDS011;4364;52.426;9.424;2024-01-15T03:13:15;8.67;;;1.73;;
8652;SDS011;4364;52.426;9.424;2024-01-15T03:15:42;11.33;;;2.93;;
8652;SDS011;4364;52.426;9.424;2024-01-15T03:18:09;6.97;;;2.23;;
8652;SDS011;4364;52.426;9.424;2024-01-15T03:20:36;10.80;;;1.77;;
8652;SDS011;4364;52.426;9.424;2024-01-15T03:23:02;6.93;;;1.83;;
8652;SDS011;4364;52.426;9.424;2024-01-15T03:25:29;13.50;;;2.43;;
8652;SDS011;4364;52.426;9.424;2024-01-15T03:27:55;9.90;;;2.40;;
8652;SDS011;4364;52.426;9.424;2024-01-15T03:30:22;9.80;;;2.07;;
8652;SDS011;4364;52.426;9.424;2024-01-15T03:32:49;10.27;;;2.67;;
8652;SDS011;4364;52.426;9.424;2024-01-15T03:35:16;10.10;;;2.13;;
8652;SDS011;4364;52.426;9.424;2024-01-15T03:37:43;14.00;;;2.20;;
8652;SDS011;4364;52.426;9.424;2024-01-15T03:40:09;12.37;;;2.13;;
8652;SDS011;4364;52.426;9.424;2024-01-15T03:42:37;9.83;;;2.40;;
8652;SDS011;4364;52.426;9.424;2024-01-15T03:45:03;9.30;;;2.30;;
8652;SDS011;4364;52.426;9.424;2024-01-15T03:47:30;16.87;;;2.73;;
8652;SDS011;4364;52.426;9.424;2024-01-15T03:49:57;8.23;;;1.80;;
8652;SDS011;4364;52.426;9.424;2024-01-15T03:52:23;10.70;;;2.10;;
8652;SDS011;4364;52.426;9.424;2024-01-15T03:54:49;5.30;;;2.10;;
8652;SDS011;4364;52.426;9.424;2024-01-15T03:57:16;8.00;;;1.80;;
8652;SDS011;4364;52.426;9.424;2024-01-15T03:59:42;8.67;;;2.00;;
8652;SDS011;4364;52.426;9.424;2024-01-15T04:02:09;8.67;;;2.27;;
8652;SDS011;4364;52.426;9.424;2024-01-15T04:04:36;10.67;;;2.20;;
8652;SDS011;4364;52.426;9.424;2024-01-15T04:07:08;6.67;;;2.07;;
8652;SDS011;4364;52.426;9.424;2024-01-15T04:09:35;10.73;;;2.33;;
8652;SDS011;4364;52.426;9.424;2024-01-15T04:12:02;10.57;;;2.40;;
8652;SDS011;4364;52.426;9.424;2024-01-15T04:14:28;7.43;;;2.03;;
8652;SDS011;4364;52.426;9.424;2024-01-15T04:16:55;6.60;;;2.07;;
8652;SDS011;4364;52.426;9.424;2024-01-15T04:19:21;14.07;;;2.23;;
8652;SDS011;4364;52.426;9.424;2024-01-15T04:21:48;9.47;;;1.83;;
8652;SDS011;4364;52.426;9.424;2024-01-15T04:24:14;12.17;;;2.10;;
8652;SDS011;4364;52.426;9.424;2024-01-15T04:26:44;7.30;;;1.90;;
8652;SDS011;4364;52.426;9.424;2024-01-15T04:29:11;8.07;;;1.93;;
8652;SDS011;4364;52.426;9.424;2024-01-15T04:31:38;7.73;;;2.07;;
8652;SDS011;4364;52.426;9.424;2024-01-15T04:34:04;9.50;;;1.80;;
8652;SDS011;4364;52.426;9.424;2024-01-15T04:36:31;11.23;;;2.20;;
8652;SDS011;4364;52.426;9.424;2024-01-15T04:38:58;10.97;;;2.30;;
8652;SDS011;4364;52.426;9.424;2024-01-15T04:41:24;7.00;;;1.80;;
8652;SDS011;4364;52.426;9.424;2024-01-15T04:43:51;11.97;;;2.60;;
8652;SDS011;4364;52.426;9.424;2024-01-15T04:46:17;8.13;;;2.77;;
8652;SDS011;4364;52.426;9.424;2024-01-15T04:48:44;11.03;;;2.40;;
8652;SDS011;4364;52.426;9.424;2024-01-15T04:51:10;10.40;;;1.90;;
8652;SDS011;4364;52.426;9.424;2024-01-15T04:53:37;8.03;;;2.30;;
8652;SDS011;4364;52.426;9.424;2024-01-15T04:56:04;10.37;;;2.13;;
8652;SDS011;4364;52.426;9.424;2024-01-15T04:58:30;8.30;;;2.17;;
8652;SDS011;4364;52.426;9.424;2024-01-15T05:00:57;5.27;;;1.67;;
8652;SDS011;4364;52.426;9.424;2024-01-15T05:03:24;8.83;;;1.70;;
8652;SDS011;4364;52.426;9.424;2024-01-15T05:05:51;5.70;;;1.70;;
8652;SDS011;4364;52.426;9.424;2024-01-15T05:08:17;8.70;;;2.00;;
8652;SDS011;4364;52.426;9.424;2024-01-15T05:10:44;7.90;;;1.90;;
8652;SDS011;4364;52.426;9.424;2024-01-15T05:13:11;9.23;;;1.93;;
8652;SDS011;4364;52.426;9.424;2024-01-15T05:15:37;8.03;;;2.27;;
8652;SDS011;4364;52.426;9.424;2024-01-15T05:18:04;7.87;;;1.63;;
8652;SDS011;4364;52.426;9.424;2024-01-15T05:20:31;9.97;;;2.53;;
8652;SDS011;4364;52.426;9.424;2024-01-15T05:22:58;6.47;;;2.10;;
8652;SDS011;4364;52.426;9.424;2024-01-15T05:25:24;7.97;;;2.27;;
8652;SDS011;4364;52.426;9.424;2024-01-15T05:27:51;6.70;;;1.70;;
8652;SDS011;4364;52.426;9.424;2024-01-15T05:30:17;9.70;;;2.10;;
8652;SDS011;4364;52.426;9.424;2024-01-15T05:32:44;7.60;;;1.90;;
8652;SDS011;4364;52.426;9.424;2024-01-15T05:35:11;6.07;;;1.80;;
8652;SDS011;4364;52.426;9.424;2024-01-15T05:37:39;6.80;;;2.03;;
8652;SDS011;4364;52.426;9.424;2024-01-15T05:40:11;8.90;;;2.00;;
8652;SDS011;4364;52.426;9.424;2024-01-15T05:42:39;7.67;;;1.73;;
8652;SDS011;4364;52.426;9.424;2024-01-15T05:45:06;10.87;;;3.50;;
8652;SDS011;4364;52.426;9.424;2024-01-15T05:47:33;7.07;;;2.07;;
8652;SDS011;4364;52.426;9.424;2024-01-15T05:50:00;7.53;;;2.93;;
8652;SDS011;4364;52.426;9.424;2024-01-15T05:52:29;8.73;;;2.20;;
8652;SDS011;4364;52.426;9.424;2024-01-15T05:54:55;11.47;;;3.50;;
8652;SDS011;4364;52.426;9.424;2024-01-15T05:57:22;8.30;;;2.97;;
8652;SDS011;4364;52.426;9.424;2024-01-15T05:59:49;6.77;;;3.30;;
8652;SDS011;4364;52.426;9.424;2024-01-15T06:02:15;14.00;;;3.17;;
8652;SDS011;4364;52.426;9.424;2024-01-15T06:04:42;8.53;;;3.00;;
8652;SDS011;4364;52.426;9.424;2024-01-15T06:07:09;12.83;;;2.50;;
8652;SDS011;4364;52.426;9.424;2024-01-15T06:09:35;11.90;;;2.50;;
8652;SDS011;4364;52.426;9.424;2024-01-15T06:12:02;8.63;;;3.20;;
8652;SDS011;4364;52.426;9.424;2024-01-15T06:14:28;8.33;;;2.80;;
8652;SDS011;4364;52.426;9.424;2024-01-15T06:16:55;7.13;;;2.70;;
8652;SDS011;4364;52.426;9.424;2024-01-15T06:19:21;10.70;;;2.90;;
8652;SDS011;4364;52.426;9.424;2024-01-15T06:21:48;12.63;;;3.10;;
8652;SDS011;4364;52.426;9.424;2024-01-15T06:24:15;10.23;;;3.73;;
8652;SDS011;4364;52.426;9.424;2024-01-15T06:26:44;9.27;;;2.50;;
8652;SDS011;4364;52.426;9.424;2024-01-15T06:29:12;7.83;;;2.03;;
8652;SDS011;4364;52.426;9.424;2024-01-15T06:31:38;8.10;;;2.30;;
8652;SDS011;4364;52.426;9.424;2024-01-15T06:34:05;7.27;;;2.10;;
8652;SDS011;4364;52.426;9.424;2024-01-15T06:36:32;8.83;;;2.80;;
8652;SDS011;4364;52.426;9.424;2024-01-15T06:38:58;8.57;;;2.10;;
8652;SDS011;4364;52.426;9.424;2024-01-15T06:41:51;6.27;;;2.53;;
8652;SDS011;4364;52.426;9.424;2024-01-15T06:44:17;9.37;;;1.90;;
8652;SDS011;4364;52.426;9.424;2024-01-15T06:46:44;9.23;;;2.33;;
8652;SDS011;4364;52.426;9.424;2024-01-15T06:49:11;5.67;;;1.70;;
8652;SDS011;4364;52.426;9.424;2024-01-15T06:51:38;7.10;;;1.97;;
8652;SDS011;4364;52.426;9.424;2024-01-15T06:54:05;8.63;;;2.13;;
8652;SDS011;4364;52.426;9.424;2024-01-15T06:56:32;6.57;;;2.03;;
8652;SDS011;4364;52.426;9.424;2024-01-15T06:58:58;7.87;;;2.40;;
8652;SDS011;4364;52.426;9.424;2024-01-15T07:01:25;11.07;;;2.47;;
8652;SDS011;4364;52.426;9.424;2024-01-15T07:03:52;7.47;;;2.23;;
8652;SDS011;4364;52.426;9.424;2024-01-15T07:06:19;7.97;;;2.40;;
8652;SDS011;4364;52.426;9.424;2024-01-15T07:08:45;10.77;;;2.30;;
8652;SDS011;4364;52.426;9.424;2024-01-15T07:11:12;10.53;;;2.67;;
8652;SDS011;4364;52.426;9.424;2024-01-15T07:13:39;9.13;;;3.83;;
8652;SDS011;4364;52.426;9.424;2024-01-15T07:16:06;9.43;;;2.93;;
8652;SDS011;4364;52.426;9.424;2024-01-15T07:18:33;10.43;;;2.70;;
8652;SDS011;4364;52.426;9.424;2024-01-15T07:21:00;7.17;;;2.60;;
8652;SDS011;4364;52.426;9.424;2024-01-15T07:23:28;5.07;;;2.40;;
8652;SDS011;4364;52.426;9.424;2024-01-15T07:25:56;7.30;;;2.50;;
8652;SDS011;4364;52.426;9.424;2024-01-15T07:28:23;8.13;;;2.33;;
8652;SDS011;4364;52.426;9.424;2024-01-15T07:30:50;11.37;;;2.63;;
8652;SDS011;4364;52.426;9.424;2024-01-15T07:33:17;7.20;;;2.00;;
8652;SDS011;4364;52.426;9.424;2024-01-15T07:35:44;10.17;;;2.40;;
8652;SDS011;4364;52.426;9.424;2024-01-15T07:38:10;6.03;;;2.30;;
8652;SDS011;4364;52.426;9.424;2024-01-15T07:40:38;10.83;;;2.50;;
8652;SDS011;4364;52.426;9.424;2024-01-15T07:43:04;9.13;;;2.60;;
8652;SDS011;4364;52.426;9.424;2024-01-15T07:45:31;11.03;;;2.83;;
8652;SDS011;4364;52.426;9.424;2024-01-15T07:47:57;12.20;;;2.50;;
8652;SDS011;4364;52.426;9.424;2024-01-15T07:50:24;8.27;;;2.50;;
8652;SDS011;4364;52.426;9.424;2024-01-15T07:52:50;9.17;;;2.93;;
8652;SDS011;4364;52.426;9.424;2024-01-15T07:55:17;6.90;;;3.43;;
8652;SDS011;4364;52.426;9.424;2024-01-15T07:57:43;7.97;;;3.57;;
8652;SDS011;4364;52.426;9.424;2024-01-15T08:00:18;12.23;;;3.07;;
8652;SDS011;4364;52.426;9.424;2024-01-15T08:02:45;10.43;;;2.90;;
8652;SDS011;4364;52.426;9.424;2024-01-15T08:05:12;10.40;;;3.23;;
8652;SDS011;4364;52.426;9.424;2024-01-15T08:07:38;6.23;;;2.60;;
8652;SDS011;4364;52.426;9.424;2024-01-15T08:10:05;8.43;;;2.70;;
8652;SDS011;4364;52.426;9.424;2024-01-15T08:12:32;6.30;;;3.23;;
8652;SDS011;4364;52.426;9.424;2024-01-15T08:14:59;5.83;;;2.70;;
8652;SDS011;4364;52.426;9.424;2024-01-15T08:17:25;6.87;;;3.63;;
8652;SDS011;4364;52.426;9.424;2024-01-15T08:19:55;9.30;;;3.03;;
8652;SDS011;4364;52.426;9.424;2024-01-15T08:22:23;8.50;;;3.03;;
8652;SDS011;4364;52.426;9.424;2024-01-15T08:24:50;6.00;;;3.10;;
8652;SDS011;4364;52.426;9.424;2024-01-15T08:27:16;6.27;;;3.30;;
8652;SDS011;4364;52.426;9.424;2024-01-15T08:29:43;7.53;;;2.60;;
8652;SDS011;4364;52.426;9.424;2024-01-15T08:32:11;9.97;;;3.50;;
8652;SDS011;4364;52.426;9.424;2024-01-15T08:34:40;12.27;;;3.47;;
8652;SDS011;4364;52.426;9.424;2024-01-15T08:37:07;7.73;;;3.03;;
8652;SDS011;4364;52.426;9.424;2024-01-15T08:39:33;9.93;;;3.53;;
8652;SDS011;4364;52.426;9.424;2024-01-15T08:42:00;6.83;;;2.83;;
8652;SDS011;4364;52.426;9.424;2024-01-15T08:44:27;11.33;;;3.20;;
8652;SDS011;4364;52.426;9.424;2024-01-15T08:46:53;8.70;;;3.67;;
8652;SDS011;4364;52.426;9.424;2024-01-15T08:49:20;10.93;;;4.37;;
8652;SDS011;4364;52.426;9.424;2024-01-15T08:51:46;10.50;;;3.97;;
8652;SDS011;4364;52.426;9.424;2024-01-15T08:54:14;10.07;;;3.47;;
8652;SDS011;4364;52.426;9.424;2024-01-15T08:56:41;10.67;;;3.63;;
8652;SDS011;4364;52.426;9.424;2024-01-15T08:59:07;11.90;;;3.40;;
8652;SDS011;4364;52.426;9.424;2024-01-15T09:01:34;7.73;;;3.43;;
8652;SDS011;4364;52.426;9.424;2024-01-15T09:04:00;8.07;;;3.57;;
8652;SDS011;4364;52.426;9.424;2024-01-15T09:06:27;8.27;;;3.33;;
8652;SDS011;4364;52.426;9.424;2024-01-15T09:08:54;8.27;;;3.10;;
8652;SDS011;4364;52.426;9.424;2024-01-15T09:11:21;9.00;;;3.77;;
8652;SDS011;4364;52.426;9.424;2024-01-15T09:13:47;11.27;;;3.10;;
8652;SDS011;4364;52.426;9.424;2024-01-15T09:16:14;9.27;;;3.20;;
8652;SDS011;4364;52.426;9.424;2024-01-15T09:18:41;7.57;;;3.13;;
8652;SDS011;4364;52.426;9.424;2024-01-15T09:21:08;8.40;;;2.90;;
8652;SDS011;4364;52.426;9.424;2024-01-15T09:23:34;7.33;;;3.13;;
8652;SDS011;4364;52.426;9.424;2024-01-15T09:26:01;7.73;;;3.10;;
8652;SDS011;4364;52.426;9.424;2024-01-15T09:28:28;9.00;;;3.10;;
8652;SDS011;4364;52.426;9.424;2024-01-15T09:30:55;8.17;;;3.00;;
8652;SDS011;4364;52.426;9.424;2024-01-15T09:33:22;6.50;;;3.27;;
8652;SDS011;4364;52.426;9.424;2024-01-15T09:35:48;7.43;;;3.10;;
8652;SDS011;4364;52.426;9.424;2024-01-15T09:38:15;7.67;;;4.00;;
8652;SDS011;4364;52.426;9.424;2024-01-15T09:40:42;7.37;;;3.70;;
8652;SDS011;4364;52.426;9.424;2024-01-15T09:43:12;4.30;;;3.00;;
8652;SDS011;4364;52.426;9.424;2024-01-15T09:45:40;8.97;;;3.07;;
8652;SDS011;4364;52.426;9.424;2024-01-15T09:48:07;7.03;;;3.60;;
8652;SDS011;4364;52.426;9.424;2024-01-15T09:50:34;7.37;;;2.90;;
8652;SDS011;4364;52.426;9.424;2024-01-15T09:53:01;6.23;;;2.50;;
8652;SDS011;4364;52.426;9.424;2024-01-15T09:55:28;6.47;;;2.10;;
8652;SDS011;4364;52.426;9.424;2024-01-15T09:57:55;4.93;;;2.50;;
8652;SDS011;4364;52.426;9.424;2024-01-15T10:00:22;5.50;;;2.43;;
8652;SDS011;4364;52.426;9.424;2024-01-15T10:02:50;7.50;;;3.63;;
8652;SDS011;4364;52.426;9.424;2024-01-15T10:05:16;6.17;;;3.50;;
8652;SDS011;4364;52.426;9.424;2024-01-15T10:07:43;4.40;;;2.83;;
8652;SDS011;4364;52.426;9.424;2024-01-15T10:10:12;9.17;;;3.13;;
8652;SDS011;4364;52.426;9.424;2024-01-15T10:12:39;6.13;;;2.97;;
8652;SDS011;4364;52.426;9.424;2024-01-15T10:15:06;5.93;;;3.10;;
8652;SDS011;4364;52.426;9.424;2024-01-15T10:17:36;8.13;;;2.97;;
8652;SDS011;4364;52.426;9.424;2024-01-15T10:20:08;6.97;;;2.83;;
8652;SDS011;4364;52.426;9.424;2024-01-15T10:22:37;5.03;;;2.93;;
8652;SDS011;4364;52.426;9.424;2024-01-15T10:25:06;5.60;;;3.03;;
8652;SDS011;4364;52.426;9.424;2024-01-15T10:27:36;7.00;;;2.93;;
8652;SDS011;4364;52.426;9.424;2024-01-15T10:30:03;6.60;;;3.07;;
8652;SDS011;4364;52.426;9.424;2024-01-15T10:32:30;6.80;;;2.60;;
8652;SDS011;4364;52.426;9.424;2024-01-15T10:34:57;8.40;;;2.47;;
8652;SDS011;4364;52.426;9.424;2024-01-15T10:37:24;7.67;;;2.57;;
8652;SDS011;4364;52.426;9.424;2024-01-15T10:39:54;8.50;;;2.93;;
8652;SDS011;4364;52.426;9.424;2024-01-15T10:42:22;5.47;;;3.07;;
8652;SDS011;4364;52.426;9.424;2024-01-15T10:44:48;6.17;;;2.60;;
8652;SDS011;4364;52.426;9.424;2024-01-15T10:47:15;3.97;;;2.30;;
8652;SDS011;4364;52.426;9.424;2024-01-15T10:49:42;8.80;;;2.23;;
8652;SDS011;4364;52.426;9.424;2024-01-15T10:52:10;7.53;;;2.23;;
8652;SDS011;4364;52.426;9.424;2024-01-15T10:54:37;5.47;;;2.13;;
8652;SDS011;4364;52.426;9.424;2024-01-15T10:57:04;8.07;;;2.20;;
8652;SDS011;4364;52.426;9.424;2024-01-15T10:59:31;7.20;;;2.53;;
8652;SDS011;4364;52.426;9.424;2024-01-15T11:01:59;6.50;;;2.50;;
8652;SDS011;4364;52.426;9.424;2024-01-15T11:04:26;11.47;;;2.43;;
8652;SDS011;4364;52.426;9.424;2024-01-15T11:06:55;7.87;;;2.70;;
8652;SDS011;4364;52.426;9.424;2024-01-15T11:09:23;6.77;;;2.50;;
8652;SDS011;4364;52.426;9.424;2024-01-15T11:11:52;9.17;;;2.53;;
8652;SDS011;4364;52.426;9.424;2024-01-15T11:14:38;6.80;;;2.20;;
8652;SDS011;4364;52.426;9.424;2024-01-15T11:17:06;4.77;;;2.00;;
8652;SDS011;4364;52.426;9.424;2024-01-15T11:19:36;8.20;;;2.53;;
8652;SDS011;4364;52.426;9.424;2024-01-15T11:22:10;9.83;;;2.40;;
8652;SDS011;4364;52.426;9.424;2024-01-15T11:24:57;7.13;;;2.87;;
8652;SDS011;4364;52.426;9.424;2024-01-15T11:27:44;7.60;;;2.50;;
8652;SDS011;4364;52.426;9.424;2024-01-15T11:30:14;6.87;;;2.50;;
8652;SDS011;4364;52.426;9.424;2024-01-15T11:32:41;8.50;;;2.93;;
8652;SDS011;4364;52.426;9.424;2024-01-15T11:35:09;6.67;;;2.40;;
8652;SDS011;4364;52.426;9.424;2024-01-15T11:40:19;8.07;;;2.83;;
8652;SDS011;4364;52.426;9.424;2024-01-15T11:42:47;8.67;;;3.00;;
8652;SDS011;4364;52.426;9.424;2024-01-15T11:45:18;11.03;;;3.20;;
8652;SDS011;4364;52.426;9.424;2024-01-15T11:50:41;9.23;;;2.33;;
8652;SDS011;4364;52.426;9.424;2024-01-15T11:56:02;9.60;;;2.93;;
8652;SDS011;4364;52.426;9.424;2024-01-15T11:58:29;6.57;;;2.60;;
8652;SDS011;4364;52.426;9.424;2024-01-15T12:00:56;6.13;;;3.20;;
8652;SDS011;4364;52.426;9.424;2024-01-15T12:03:23;6.37;;;2.63;;
8652;SDS011;4364;52.426;9.424;2024-01-15T12:05:52;8.97;;;2.40;;
8652;SDS011;4364;52.426;9.424;2024-01-15T12:08:24;10.23;;;2.73;;
8652;SDS011;4364;52.426;9.424;2024-01-15T12:10:52;11.27;;;2.47;;
8652;SDS011;4364;52.426;9.424;2024-01-15T12:13:20;10.03;;;2.37;;
8652;SDS011;4364;52.426;9.424;2024-01-15T12:15:47;9.50;;;2.50;;
8652;SDS011;4364;52.426;9.424;2024-01-15T12:18:15;8.97;;;2.17;;
8652;SDS011;4364;52.426;9.424;2024-01-15T12:20:45;9.93;;;2.80;;
8652;SDS011;4364;52.426;9.424;2024-01-15T12:23:16;9.43;;;2.00;;
8652;SDS011;4364;52.426;9.424;2024-01-15T12:25:44;9.97;;;2.30;;
8652;SDS011;4364;52.426;9.424;2024-01-15T12:28:10;9.57;;;2.20;;
8652;SDS011;4364;52.426;9.424;2024-01-15T12:30:37;6.77;;;2.13;;
8652;SDS011;4364;52.426;9.424;2024-01-15T12:33:05;7.77;;;2.60;;
8652;SDS011;4364;52.426;9.424;2024-01-15T12:35:34;8.17;;;2.00;;
8652;SDS011;4364;52.426;9.424;2024-01-15T12:38:01;12.03;;;2.90;;
8652;SDS011;4364;52.426;9.424;2024-01-15T12:40:32;7.43;;;2.27;;
8652;SDS011;4364;52.426;9.424;2024-01-15T12:43:00;9.93;;;2.37;;
8652;SDS011;4364;52.426;9.424;2024-01-15T12:45:27;8.17;;;2.37;;
8652;SDS011;4364;52.426;9.424;2024-01-15T12:47:54;7.47;;;2.00;;
8652;SDS011;4364;52.426;9.424;2024-01-15T12:50:23;7.20;;;2.10;;
8652;SDS011;4364;52.426;9.424;2024-01-15T12:52:50;7.50;;;1.80;;
8652;SDS011;4364;52.426;9.424;2024-01-15T12:55:18;8.60;;;2.73;;
8652;SDS011;4364;52.426;9.424;2024-01-15T12:57:44;8.33;;;2.30;;
8652;SDS011;4364;52.426;9.424;2024-01-15T13:00:12;8.80;;;2.80;;
8652;SDS011;4364;52.426;9.424;2024-01-15T13:02:41;7.83;;;2.43;;
8652;SDS011;4364;52.426;9.424;2024-01-15T13:05:09;5.90;;;2.30;;
8652;SDS011;4364;52.426;9.424;2024-01-15T13:07:42;8.40;;;2.03;;
8652;SDS011;4364;52.426;9.424;2024-01-15T13:10:10;7.23;;;1.70;;
8652;SDS011;4364;52.426;9.424;2024-01-15T13:12:37;7.03;;;1.87;;
8652;SDS011;4364;52.426;9.424;2024-01-15T13:15:04;10.43;;;2.33;;
8652;SDS011;4364;52.426;9.424;2024-01-15T13:17:31;6.07;;;1.47;;
8652;SDS011;4364;52.426;9.424;2024-01-15T13:19:58;6.77;;;1.53;;
8652;SDS011;4364;52.426;9.424;2024-01-15T13:22:25;10.40;;;3.00;;
8652;SDS011;4364;52.426;9.424;2024-01-15T13:24:56;5.80;;;1.83;;
8652;SDS011;4364;52.426;9.424;2024-01-15T13:27:23;9.67;;;2.97;;
8652;SDS011;4364;52.426;9.424;2024-01-15T13:29:49;8.57;;;2.83;;
8652;SDS011;4364;52.426;9.424;2024-01-15T13:32:24;9.27;;;3.20;;
8652;SDS011;4364;52.426;9.424;2024-01-15T13:34:54;7.43;;;2.10;;
8652;SDS011;4364;52.426;9.424;2024-01-15T13:37:21;6.27;;;2.90;;
8652;SDS011;4364;52.426;9.424;2024-01-15T13:39:50;7.33;;;2.37;;
8652;SDS011;4364;52.426;9.424;2024-01-15T13:42:18;9.80;;;3.93;;
8652;SDS011;4364;52.426;9.424;2024-01-15T13:44:44;8.13;;;2.37;;
8652;SDS011;4364;52.426;9.424;2024-01-15T13:47:11;7.47;;;3.07;;
8652;SDS011;4364;52.426;9.424;2024-01-15T13:49:38;7.10;;;2.07;;
8652;SDS011;4364;52.426;9.424;2024-01-15T13:52:05;9.70;;;3.17;;
8652;SDS011;4364;52.426;9.424;2024-01-15T13:54:31;8.53;;;3.97;;
8652;SDS011;4364;52.426;9.424;2024-01-15T13:57:15;7.17;;;3.30;;
8652;SDS011;4364;52.426;9.424;2024-01-15T13:59:46;5.63;;;2.30;;
8652;SDS011;4364;52.426;9.424;2024-01-15T14:02:13;7.70;;;2.13;;
8652;SDS011;4364;52.426;9.424;2024-01-15T14:04:46;8.03;;;3.20;;
8652;SDS011;4364;52.426;9.424;2024-01-15T14:07:13;8.73;;;3.87;;
8652;SDS011;4364;52.426;9.424;2024-01-15T14:09:40;9.47;;;3.10;;
8652;SDS011;4364;52.426;9.424;2024-01-15T14:12:06;11.13;;;4.57;;
8652;SDS011;4364;52.426;9.424;2024-01-15T14:14:33;8.80;;;3.07;;
8652;SDS011;4364;52.426;9.424;2024-01-15T14:17:00;25.23;;;9.57;;
8652;SDS011;4364;52.426;9.424;2024-01-15T14:19:27;9.67;;;3.63;;
8652;SDS011;4364;52.426;9.424;2024-01-15T14:21:55;6.83;;;3.30;;
8652;SDS011;4364;52.426;9.424;2024-01-15T14:24:21;9.20;;;3.30;;
8652;SDS011;4364;52.426;9.424;2024-01-15T14:26:48;8.33;;;3.20;;
8652;SDS011;4364;52.426;9.424;2024-01-15T14:29:14;5.03;;;2.67;;
8652;SDS011;4364;52.426;9.424;2024-01-15T14:31:41;6.20;;;2.50;;
8652;SDS011;4364;52.426;9.424;2024-01-15T14:34:08;5.20;;;2.90;;
8652;SDS011;4364;52.426;9.424;2024-01-15T14:36:35;9.13;;;2.90;;
8652;SDS011;4364;52.426;9.424;2024-01-15T14:39:01;7.70;;;4.73;;
8652;SDS011;4364;52.426;9.424;2024-01-15T14:41:28;13.30;;;3.57;;
8652;SDS011;4364;52.426;9.424;2024-01-15T14:43:55;6.33;;;3.50;;
8652;SDS011;4364;52.426;9.424;2024-01-15T14:46:23;9.53;;;3.73;;
8652;SDS011;4364;52.426;9.424;2024-01-15T14:48:49;10.13;;;4.00;;
8652;SDS011;4364;52.426;9.424;2024-01-15T14:51:16;8.37;;;3.90;;
8652;SDS011;4364;52.426;9.424;2024-01-15T14:53:43;8.47;;;3.30;;
8652;SDS011;4364;52.426;9.424;2024-01-15T14:56:10;6.60;;;3.37;;
8652;SDS011;4364;52.426;9.424;2024-01-15T14:58:41;16.43;;;7.50;;
8652;SDS011;4364;52.426;9.424;2024-01-15T15:01:08;8.60;;;3.90;;
8652;SDS011;4364;52.426;9.424;2024-01-15T15:03:36;8.63;;;3.03;;
8652;SDS011;4364;52.426;9.424;2024-01-15T15:06:02;4.87;;;2.93;;
8652;SDS011;4364;52.426;9.424;2024-01-15T15:08:29;7.33;;;3.10;;
8652;SDS011;4364;52.426;9.424;2024-01-15T15:10:56;4.20;;;2.70;;
8652;SDS011;4364;52.426;9.424;2024-01-15T15:13:23;10.40;;;4.20;;
8652;SDS011;4364;52.426;9.424;2024-01-15T15:16:07;6.10;;;3.00;;
8652;SDS011;4364;52.426;9.424;2024-01-15T15:18:34;5.87;;;3.50;;
8652;SDS011;4364;52.426;9.424;2024-01-15T15:21:01;7.97;;;2.80;;